Time;durP1;ratioP1;P1;durP2;ratioP2;P2;SDS_P1;SDS_P2;PMS_P1;PMS_P2;Temp;Humidity;BMP_temperature;BMP_pressure;BME280_temperature;BME280_humidity;BME280_pressure;Samples;Min_cycle;Max_cycle;Signal;HPM_P1;HPM_P2
2023/07/10 00:01:30;;;;;;;29.15;14.73;;;19.60;99.90;;;;;;5009068;28;20128;-82
2023/07/10 00:03:56;;;;;;;31.35;15.20;;;19.60;99.90;;;;;;5023112;28;20116;-82
2023/07/10 00:06:22;;;;;;;24.27;14.38;;;19.60;99.90;;;;;;5022941;28;20030;-80
2023/07/10 00:08:47;;;;;;;21.08;14.57;;;19.60;99.90;;;;;;5003415;28;20033;-82
2023/07/10 00:11:20;;;;;;;21.52;14.65;;;19.60;99.90;;;;;;5026212;28;20399;-82
2023/07/10 00:13:46;;;;;;;21.20;13.57;;;19.60;99.90;;;;;;5023627;28;20037;-82
2023/07/10 00:16:21;;;;;;;24.00;15.32;;;19.60;99.90;;;;;;5020120;28;20075;-82
2023/07/10 00:18:47;;;;;;;25.45;14.50;;;19.60;99.90;;;;;;5021596;28;20548;-82
2023/07/10 00:21:13;;;;;;;24.88;14.82;;;19.60;99.90;;;;;;5034228;28;20574;-82
2023/07/10 00:23:39;;;;;;;21.33;14.45;;;19.60;99.90;;;;;;5004739;28;20037;-82
2023/07/10 00:26:22;;;;;;;25.50;15.73;;;19.60;99.90;;;;;;5016886;28;20106;-82
2023/07/10 00:28:51;;;;;;;22.88;14.18;;;19.60;99.90;;;;;;5039506;28;20080;-83
2023/07/10 00:31:19;;;;;;;28.17;15.35;;;19.60;99.90;;;;;;5015980;28;20377;-82
2023/07/10 00:33:48;;;;;;;23.58;14.60;;;19.60;99.90;;;;;;5006164;28;20457;-82
2023/07/10 00:36:33;;;;;;;22.90;15.60;;;19.60;99.90;;;;;;5007032;28;20140;-82
2023/07/10 00:39:28;;;;;;;23.67;14.88;;;19.60;99.90;;;;;;5032092;28;20045;-82
2023/07/10 00:42:02;;;;;;;27.50;15.15;;;19.60;99.90;;;;;;5032976;28;20064;-82
2023/07/10 00:44:43;;;;;;;19.80;14.52;;;19.60;99.90;;;;;;5006693;28;20069;-82
2023/07/10 00:47:39;;;;;;;24.15;15.90;;;19.60;99.90;;;;;;5022564;28;20501;-82
2023/07/10 00:50:36;;;;;;;24.52;14.35;;;19.60;99.90;;;;;;5020971;28;20041;-82
2023/07/10 00:53:22;;;;;;;21.95;14.23;;;19.70;99.90;;;;;;5002521;28;20049;-82
2023/07/10 00:55:54;;;;;;;23.63;14.75;;;19.70;99.90;;;;;;5017812;28;20444;-82
2023/07/10 00:58:31;;;;;;;29.27;15.68;;;19.60;99.90;;;;;;5008770;28;20040;-82
2023/07/10 01:01:01;;;;;;;27.23;16.38;;;19.60;99.90;;;;;;5004740;28;20104;-82
2023/07/10 01:03:26;;;;;;;29.85;16.42;;;19.60;99.90;;;;;;5022719;28;20084;-82
2023/07/10 01:05:53;;;;;;;28.67;16.15;;;19.60;99.90;;;;;;5026513;28;20457;-82
2023/07/10 01:08:19;;;;;;;29.15;16.95;;;19.60;99.90;;;;;;5020450;28;20059;-82
2023/07/10 01:10:44;;;;;;;29.83;17.10;;;19.60;99.90;;;;;;5008826;28;20035;-81
2023/07/10 01:13:11;;;;;;;31.55;17.60;;;19.60;99.90;;;;;;5022225;28;20948;-82
2023/07/10 01:15:37;;;;;;;31.42;19.95;;;19.60;99.90;;;;;;5008084;28;20525;-82
2023/07/10 01:18:05;;;;;;;30.85;19.02;;;19.60;99.90;;;;;;5004776;28;20112;-82
2023/07/10 01:20:43;;;;;;;36.83;19.65;;;19.60;99.90;;;;;;5020219;28;20106;-82
2023/07/10 01:23:09;;;;;;;36.15;19.95;;;19.60;99.90;;;;;;5017788;28;20029;-83
2023/07/10 01:25:50;;;;;;;33.47;21.35;;;19.50;99.90;;;;;;5020811;28;20123;-82
2023/07/10 01:28:19;;;;;;;40.47;22.02;;;19.50;99.90;;;;;;5007047;28;20087;-81
2023/07/10 01:30:47;;;;;;;38.10;22.52;;;19.50;99.90;;;;;;5031779;28;20086;-82
2023/07/10 01:33:18;;;;;;;42.10;23.00;;;19.60;99.90;;;;;;5017601;28;20045;-82
2023/07/10 01:35:46;;;;;;;46.08;22.75;;;19.50;99.90;;;;;;5018821;28;20041;-82
2023/07/10 01:38:14;;;;;;;40.53;22.67;;;19.50;99.90;;;;;;5015372;28;20214;-82
2023/07/10 01:40:45;;;;;;;37.80;22.13;;;19.40;99.90;;;;;;5026354;28;20037;-82
2023/07/10 01:43:11;;;;;;;37.17;22.77;;;19.40;99.90;;;;;;5017538;28;20141;-82
2023/07/10 01:45:45;;;;;;;37.05;21.95;;;19.30;99.90;;;;;;5019183;28;20449;-82
2023/07/10 01:48:13;;;;;;;38.58;21.55;;;19.20;99.90;;;;;;5019149;28;20179;-82
2023/07/10 01:50:39;;;;;;;39.17;22.10;;;19.30;99.90;;;;;;5004373;28;20076;-82
2023/07/10 01:53:07;;;;;;;34.83;21.45;;;19.20;99.90;;;;;;5020645;28;20506;-82
2023/07/10 01:55:38;;;;;;;38.88;22.40;;;19.20;99.90;;;;;;5005434;28;20045;-82
2023/07/10 01:58:04;;;;;;;33.63;20.67;;;19.20;99.90;;;;;;5024596;28;20045;-81
2023/07/10 02:00:30;;;;;;;34.47;20.73;;;19.10;99.90;;;;;;5023880;28;20033;-82
2023/07/10 02:02:56;;;;;;;31.10;21.10;;;19.10;99.90;;;;;;5021398;28;20374;-82
2023/07/10 02:05:21;;;;;;;32.10;20.52;;;19.00;99.90;;;;;;5013657;28;20133;-82
2023/07/10 02:07:47;;;;;;;36.30;20.73;;;19.00;99.90;;;;;;5005555;28;20076;-82
2023/07/10 02:10:13;;;;;;;31.25;21.00;;;19.00;99.90;;;;;;5022074;28;20611;-82
2023/07/10 02:12:38;;;;;;;32.50;20.25;;;19.00;99.90;;;;;;5022577;28;20409;-82
2023/07/10 02:15:08;;;;;;;32.78;21.75;;;19.00;99.90;;;;;;5024114;28;20143;-82
2023/07/10 02:17:33;;;;;;;33.38;20.48;;;19.00;99.90;;;;;;5007310;28;20095;-82
2023/07/10 02:19:59;;;;;;;28.52;19.67;;;18.90;99.90;;;;;;5022991;28;20053;-82
2023/07/10 02:22:24;;;;;;;32.22;20.67;;;18.90;99.90;;;;;;5008806;28;20123;-82
2023/07/10 02:24:50;;;;;;;32.22;19.95;;;18.90;99.90;;;;;;5031510;28;20091;-82
2023/07/10 02:27:16;;;;;;;33.38;21.00;;;18.90;99.90;;;;;;5018793;28;20099;-82
2023/07/10 02:29:41;;;;;;;33.92;19.83;;;18.90;99.90;;;;;;5005380;28;20512;-82
2023/07/10 02:32:07;;;;;;;33.40;20.60;;;18.90;99.90;;;;;;5002114;28;20049;-82
2023/07/10 02:34:33;;;;;;;33.25;20.45;;;18.90;99.90;;;;;;5020304;28;20051;-82
2023/07/10 02:36:59;;;;;;;35.00;21.20;;;18.80;99.90;;;;;;5022953;28;20041;-82
2023/07/10 02:39:24;;;;;;;33.17;20.15;;;18.80;99.90;;;;;;5000262;28;20129;-82
2023/07/10 02:41:52;;;;;;;36.80;19.83;;;18.90;99.90;;;;;;5050888;28;20037;-82
2023/07/10 02:44:18;;;;;;;30.45;19.95;;;18.80;99.90;;;;;;5004797;28;20503;-82
2023/07/10 02:46:44;;;;;;;29.30;20.50;;;18.80;99.90;;;;;;5022278;28;20041;-82
2023/07/10 02:49:09;;;;;;;29.65;21.23;;;18.80;99.90;;;;;;5016538;28;20084;-82
2023/07/10 02:51:35;;;;;;;33.95;21.35;;;18.70;99.90;;;;;;5001228;28;20080;-82
2023/07/10 02:54:11;;;;;;;29.70;19.20;;;18.80;99.90;;;;;;4998416;28;20053;-82
2023/07/10 02:56:37;;;;;;;33.13;20.38;;;18.80;99.90;;;;;;5020459;28;20071;-82
2023/07/10 02:59:03;;;;;;;32.40;19.65;;;18.80;99.90;;;;;;5007163;28;20128;-82
2023/07/10 03:01:28;;;;;;;27.20;19.33;;;18.80;99.90;;;;;;5016404;28;20040;-82
2023/07/10 03:03:54;;;;;;;26.30;19.42;;;18.80;99.90;;;;;;5007791;28;20128;-82
2023/07/10 03:06:20;;;;;;;28.92;19.63;;;18.80;99.90;;;;;;5009692;28;20338;-82
2023/07/10 03:08:47;;;;;;;30.77;20.10;;;18.80;99.90;;;;;;5006255;28;20306;-82
2023/07/10 03:11:15;;;;;;;30.45;20.83;;;18.80;99.90;;;;;;5027932;28;20081;-82
2023/07/10 03:13:40;;;;;;;31.45;21.05;;;18.80;99.90;;;;;;5008951;28;20665;-82
2023/07/10 03:16:11;;;;;;;32.47;19.63;;;18.70;99.90;;;;;;5021476;28;20037;-82
2023/07/10 03:18:38;;;;;;;26.48;20.15;;;18.70;99.90;;;;;;5026267;28;20526;-82
2023/07/10 03:21:04;;;;;;;28.63;19.95;;;18.70;99.90;;;;;;5022497;28;20037;-82
2023/07/10 03:23:30;;;;;;;32.15;20.48;;;18.70;99.90;;;;;;5024026;28;20065;-82
2023/07/10 03:25:56;;;;;;;29.02;19.65;;;18.70;99.90;;;;;;5001133;28;20033;-82
2023/07/10 03:28:22;;;;;;;26.42;19.63;;;18.70;99.90;;;;;;5026856;28;20620;-82
2023/07/10 03:30:48;;;;;;;28.65;19.08;;;18.80;99.90;;;;;;5009192;28;20037;-81
2023/07/10 03:33:16;;;;;;;30.50;20.83;;;18.70;99.90;;;;;;5006928;28;20477;-82
2023/07/10 03:35:43;;;;;;;30.98;20.95;;;18.80;99.90;;;;;;5017996;28;20049;-82
2023/07/10 03:38:08;;;;;;;27.13;18.83;;;18.70;99.90;;;;;;5001837;28;20071;-82
2023/07/10 03:40:35;;;;;;;28.58;19.90;;;18.70;99.90;;;;;;5018090;28;20089;-82
2023/07/10 03:43:00;;;;;;;30.88;18.98;;;18.70;99.90;;;;;;5009162;28;20045;-82
2023/07/10 03:45:28;;;;;;;32.60;20.10;;;18.70;99.90;;;;;;5035611;28;20040;-82
2023/07/10 03:47:54;;;;;;;28.75;20.52;;;18.70;99.90;;;;;;5027999;28;20068;-82
2023/07/10 03:50:19;;;;;;;29.70;20.10;;;18.80;99.90;;;;;;5014867;28;20072;-82
2023/07/10 03:52:45;;;;;;;35.45;21.27;;;18.70;99.90;;;;;;5006669;28;20542;-82
2023/07/10 03:55:10;;;;;;;31.08;20.63;;;18.70;99.90;;;;;;5004143;28;20037;-82
2023/07/10 03:57:36;;;;;;;28.38;20.08;;;18.70;99.90;;;;;;5009964;28;20712;-82
2023/07/10 04:00:05;;;;;;;31.25;21.30;;;18.80;99.90;;;;;;5001480;28;20393;-82
2023/07/10 04:02:31;;;;;;;30.15;20.08;;;18.80;99.90;;;;;;4997357;28;20036;-82
2023/07/10 04:04:56;;;;;;;34.97;21.00;;;18.80;99.90;;;;;;5020674;28;20460;-81
2023/07/10 04:07:22;;;;;;;28.83;20.75;;;18.80;99.90;;;;;;5022784;28;20474;-82
2023/07/10 04:09:47;;;;;;;29.90;19.92;;;18.80;99.90;;;;;;5022437;28;20051;-82
2023/07/10 04:12:13;;;;;;;30.13;19.52;;;18.80;99.90;;;;;;5022842;28;20600;-82
2023/07/10 04:14:39;;;;;;;26.95;19.35;;;18.70;99.90;;;;;;5020641;28;20124;-82
2023/07/10 04:17:05;;;;;;;25.55;18.08;;;18.70;99.90;;;;;;5009888;28;20040;-81
2023/07/10 04:19:30;;;;;;;26.23;19.10;;;18.80;99.90;;;;;;5004805;28;20488;-82
2023/07/10 04:21:56;;;;;;;25.08;18.65;;;18.80;99.90;;;;;;5018642;28;20155;-82
2023/07/10 04:24:21;;;;;;;27.00;18.55;;;18.90;99.90;;;;;;5022215;28;20430;-82
2023/07/10 04:26:47;;;;;;;26.42;18.50;;;18.90;99.90;;;;;;5009115;28;20507;-82
2023/07/10 04:29:13;;;;;;;27.80;18.05;;;18.90;99.90;;;;;;5023746;28;20049;-82
2023/07/10 04:31:39;;;;;;;26.33;18.38;;;18.90;99.90;;;;;;5019592;28;20322;-81
2023/07/10 04:34:05;;;;;;;21.08;16.65;;;18.90;99.90;;;;;;5005984;28;20115;-82
2023/07/10 04:36:30;;;;;;;23.70;17.30;;;18.90;99.90;;;;;;5015352;28;20055;-82
2023/07/10 04:38:56;;;;;;;22.08;16.88;;;18.90;99.90;;;;;;5008176;28;20060;-82
2023/07/10 04:41:24;;;;;;;24.40;16.80;;;18.90;99.90;;;;;;5022615;28;20508;-82
2023/07/10 04:43:50;;;;;;;21.75;15.63;;;18.90;99.90;;;;;;5048395;28;20494;-82
2023/07/10 04:46:17;;;;;;;24.00;15.57;;;18.90;99.90;;;;;;5034201;28;20790;-82
2023/07/10 04:48:43;;;;;;;18.75;13.90;;;18.90;99.90;;;;;;5020534;28;20067;-82
2023/07/10 04:51:11;;;;;;;16.80;12.73;;;18.90;99.90;;;;;;5005509;28;20036;-82
2023/07/10 04:53:36;;;;;;;16.80;13.05;;;18.80;99.90;;;;;;5005299;28;20034;-82
2023/07/10 04:56:05;;;;;;;15.68;11.23;;;18.90;99.90;;;;;;5023289;28;20048;-82
2023/07/10 04:58:52;;;;;;;14.38;10.82;;;18.80;99.90;;;;;;5002372;28;20052;-82
2023/07/10 05:01:21;;;;;;;15.30;10.98;;;18.80;99.90;;;;;;5000228;28;20041;-82
2023/07/10 05:03:47;;;;;;;12.63;10.02;;;18.70;99.90;;;;;;5040668;28;20044;-82
2023/07/10 05:06:14;;;;;;;12.82;9.98;;;18.70;99.90;;;;;;5021056;28;20652;-82
2023/07/10 05:08:40;;;;;;;11.05;8.82;;;18.70;99.90;;;;;;5019698;28;20037;-82
2023/07/10 05:11:05;;;;;;;13.63;8.50;;;18.60;99.90;;;;;;5039272;28;20053;-82
2023/07/10 05:13:31;;;;;;;9.20;7.90;;;18.60;99.90;;;;;;5017641;28;20610;-82
2023/07/10 05:15:58;;;;;;;10.73;7.45;;;18.70;99.90;;;;;;5023787;28;20075;-82
2023/07/10 05:18:25;;;;;;;10.45;7.65;;;18.80;99.90;;;;;;5039660;28;20451;-82
2023/07/10 05:20:52;;;;;;;12.10;7.80;;;18.70;99.90;;;;;;5019046;28;20124;-82
2023/07/10 05:23:18;;;;;;;13.38;8.65;;;18.80;99.90;;;;;;5003745;28;20453;-82
2023/07/10 05:26:01;;;;;;;9.77;7.35;;;18.70;99.90;;;;;;5030725;28;20034;-82
2023/07/10 05:28:26;;;;;;;10.18;7.35;;;18.80;99.90;;;;;;5035181;28;20033;-82
2023/07/10 05:30:53;;;;;;;11.07;7.43;;;18.90;99.90;;;;;;5019563;28;20052;-82
2023/07/10 05:33:19;;;;;;;9.07;7.43;;;18.90;99.90;;;;;;5025427;28;20048;-82
2023/07/10 05:36:00;;;;;;;13.55;7.38;;;18.90;99.90;;;;;;5021957;28;20198;-82
2023/07/10 05:38:31;;;;;;;11.07;7.53;;;19.00;99.90;;;;;;5013782;28;20045;-82
2023/07/10 05:40:57;;;;;;;9.98;6.57;;;19.10;99.90;;;;;;5050618;28;20084;-82
2023/07/10 05:43:23;;;;;;;7.85;6.72;;;19.10;99.90;;;;;;5021862;28;20057;-82
2023/07/10 05:45:51;;;;;;;8.10;6.22;;;19.20;99.90;;;;;;5022183;28;20033;-82
2023/07/10 05:48:17;;;;;;;9.68;6.30;;;19.20;99.90;;;;;;5018891;28;20120;-82
2023/07/10 05:50:45;;;;;;;9.88;5.90;;;19.20;99.90;;;;;;5001058;28;20041;-82
2023/07/10 05:53:11;;;;;;;7.32;5.10;;;19.20;99.90;;;;;;5021434;28;20063;-82
2023/07/10 05:55:37;;;;;;;8.20;4.72;;;19.30;99.90;;;;;;5017160;28;20041;-82
2023/07/10 05:58:02;;;;;;;8.95;4.40;;;19.10;99.90;;;;;;5026005;28;20079;-82
2023/07/10 06:00:28;;;;;;;7.50;4.38;;;19.20;99.90;;;;;;5023178;28;20076;-82
2023/07/10 06:02:54;;;;;;;7.72;3.85;;;19.40;99.90;;;;;;5010312;28;20037;-82
2023/07/10 06:05:20;;;;;;;10.32;5.05;;;19.40;99.90;;;;;;5040273;28;20208;-82
2023/07/10 06:07:46;;;;;;;7.00;4.32;;;19.40;99.90;;;;;;5035389;28;20135;-83
2023/07/10 06:10:11;;;;;;;7.22;3.72;;;19.30;99.90;;;;;;5030792;28;20651;-82
2023/07/10 06:12:37;;;;;;;10.35;4.15;;;19.20;99.90;;;;;;5038360;28;20364;-82
2023/07/10 06:15:07;;;;;;;7.68;3.70;;;19.20;99.90;;;;;;5022830;28;20199;-82
2023/07/10 06:17:33;;;;;;;6.38;3.72;;;19.10;99.90;;;;;;5001330;28;20119;-82
2023/07/10 06:19:58;;;;;;;7.55;4.20;;;19.20;99.90;;;;;;5033178;28;20674;-82
2023/07/10 06:22:24;;;;;;;6.07;3.80;;;19.30;99.90;;;;;;5032154;28;20197;-82
2023/07/10 06:24:50;;;;;;;6.38;3.60;;;19.50;99.90;;;;;;5032366;28;20444;-82
2023/07/10 06:27:16;;;;;;;6.60;3.67;;;19.50;99.90;;;;;;5023850;28;20226;-82
2023/07/10 06:29:41;;;;;;;8.68;4.20;;;19.80;99.90;;;;;;5030464;28;20478;-82
2023/07/10 06:32:08;;;;;;;7.07;3.90;;;19.70;99.90;;;;;;5004910;28;20348;-82
2023/07/10 06:34:34;;;;;;;8.25;4.13;;;19.50;99.90;;;;;;5025499;28;20441;-82
2023/07/10 06:36:59;;;;;;;7.25;3.83;;;19.40;99.90;;;;;;5050514;28;20037;-82
2023/07/10 06:39:28;;;;;;;7.30;4.00;;;19.30;99.90;;;;;;5002949;28;20043;-82
2023/07/10 06:41:54;;;;;;;7.10;4.00;;;19.40;99.90;;;;;;5004239;28;20048;-82
2023/07/10 06:44:20;;;;;;;7.05;4.22;;;19.40;99.90;;;;;;5022690;28;20038;-82
2023/07/10 06:46:46;;;;;;;7.72;4.20;;;19.50;99.90;;;;;;5031553;28;20955;-83
2023/07/10 06:49:11;;;;;;;9.00;4.43;;;19.60;99.90;;;;;;5026902;28;20172;-81
2023/07/10 06:51:37;;;;;;;6.95;4.50;;;19.60;99.90;;;;;;5032534;28;20277;-81
2023/07/10 06:54:03;;;;;;;7.15;4.22;;;19.80;99.90;;;;;;5032729;28;20473;-81
2023/07/10 06:56:30;;;;;;;8.95;4.40;;;19.90;99.90;;;;;;5004000;28;20090;-81
2023/07/10 06:58:56;;;;;;;8.02;4.55;;;19.80;99.90;;;;;;5039075;28;20116;-81
2023/07/10 07:01:22;;;;;;;8.40;4.32;;;20.10;99.90;;;;;;5024813;28;20044;-81
2023/07/10 07:03:47;;;;;;;6.88;3.75;;;20.20;99.90;;;;;;5024586;28;20384;-82
2023/07/10 07:06:16;;;;;;;8.40;3.85;;;20.20;99.90;;;;;;5038073;28;20130;-81
2023/07/10 07:08:46;;;;;;;6.78;3.10;;;20.20;99.90;;;;;;5050214;28;20121;-81
2023/07/10 07:11:12;;;;;;;8.45;3.53;;;20.10;99.90;;;;;;5016324;28;20212;-81
2023/07/10 07:13:38;;;;;;;5.60;3.35;;;20.20;99.90;;;;;;5025147;28;20141;-82
2023/07/10 07:16:04;;;;;;;6.82;2.90;;;20.30;99.90;;;;;;5053334;28;20614;-81
2023/07/10 07:18:33;;;;;;;4.68;2.65;;;20.40;99.90;;;;;;5023462;28;21135;-81
2023/07/10 07:20:59;;;;;;;7.20;2.65;;;20.60;99.90;;;;;;5021909;28;20046;-81
2023/07/10 07:23:26;;;;;;;7.97;3.30;;;20.60;99.90;;;;;;5036239;28;20764;-81
2023/07/10 07:25:56;;;;;;;6.70;3.25;;;20.60;99.90;;;;;;5020823;28;20041;-81
2023/07/10 07:28:22;;;;;;;5.25;3.13;;;20.60;99.90;;;;;;5010033;28;20526;-81
2023/07/10 07:30:48;;;;;;;6.90;3.03;;;20.60;99.90;;;;;;5021519;28;20052;-81
2023/07/10 07:33:18;;;;;;;4.47;2.45;;;20.80;99.90;;;;;;5022940;28;20048;-81
2023/07/10 07:35:44;;;;;;;8.38;2.88;;;20.90;99.90;;;;;;5052945;28;20087;-81
2023/07/10 07:38:10;;;;;;;6.07;3.10;;;20.90;99.90;;;;;;5017629;28;20511;-81
2023/07/10 07:40:36;;;;;;;7.50;2.97;;;20.90;99.90;;;;;;5031243;28;20075;-81
2023/07/10 07:43:02;;;;;;;7.18;3.53;;;21.00;99.90;;;;;;5024521;28;20469;-81
2023/07/10 07:45:28;;;;;;;8.52;3.40;;;20.80;99.90;;;;;;5025893;28;20523;-81
2023/07/10 07:47:53;;;;;;;7.82;3.05;;;21.00;99.90;;;;;;5022444;28;20030;-82
2023/07/10 07:50:19;;;;;;;8.32;3.00;;;21.10;99.90;;;;;;5016872;28;20061;-81
2023/07/10 07:52:45;;;;;;;6.15;2.65;;;21.10;99.90;;;;;;5037509;28;20063;-81
2023/07/10 07:55:14;;;;;;;9.32;2.60;;;21.00;99.90;;;;;;5016987;28;20050;-81
2023/07/10 07:57:39;;;;;;;7.72;2.97;;;21.20;99.90;;;;;;5019023;28;20540;-81
2023/07/10 08:00:08;;;;;;;5.80;2.60;;;21.10;99.90;;;;;;5022475;28;20045;-82
2023/07/10 08:02:33;;;;;;;8.57;2.60;;;21.30;99.90;;;;;;5012351;28;20465;-82
2023/07/10 08:05:00;;;;;;;6.47;2.25;;;21.50;99.90;;;;;;5022823;28;20037;-81
2023/07/10 08:07:26;;;;;;;6.15;2.80;;;21.30;99.90;;;;;;5032063;28;20241;-81
2023/07/10 08:09:52;;;;;;;6.82;2.30;;;21.60;99.90;;;;;;5019172;28;20067;-81
2023/07/10 08:12:18;;;;;;;7.97;2.83;;;21.50;99.90;;;;;;5018164;28;20049;-81
2023/07/10 08:14:44;;;;;;;6.70;2.80;;;21.80;99.90;;;;;;5036922;28;20095;-82
2023/07/10 08:17:10;;;;;;;6.85;3.03;;;22.30;99.90;;;;;;5025606;28;20041;-82
2023/07/10 08:19:37;;;;;;;7.82;2.50;;;22.30;99.90;;;;;;5018169;28;20029;-82
2023/07/10 08:22:04;;;;;;;5.90;2.50;;;22.10;99.90;;;;;;5024794;28;20079;-81
2023/07/10 08:24:30;;;;;;;10.95;3.13;;;21.60;99.90;;;;;;5018128;28;20421;-81
2023/07/10 08:26:56;;;;;;;5.60;2.42;;;21.80;99.90;;;;;;5022501;28;20404;-81
2023/07/10 08:29:34;;;;;;;6.30;2.03;;;21.60;99.90;;;;;;5016890;28;20136;-82
2023/07/10 08:32:01;;;;;;;5.80;2.80;;;21.90;99.90;;;;;;5020015;28;20672;-81
2023/07/10 08:34:29;;;;;;;7.45;2.40;;;21.90;99.90;;;;;;5023035;28;20083;-81
2023/07/10 08:36:58;;;;;;;5.80;2.60;;;21.90;99.90;;;;;;5052942;28;20037;-81
2023/07/10 08:39:26;;;;;;;6.93;2.38;;;22.20;99.90;;;;;;5033309;28;20457;-81
2023/07/10 08:42:02;;;;;;;8.38;2.85;;;22.60;99.90;;;;;;5018183;28;20053;-81
2023/07/10 08:44:35;;;;;;;6.85;2.58;;;22.70;99.90;;;;;;5034191;28;20857;-82
2023/07/10 08:47:11;;;;;;;7.20;2.35;;;22.60;99.90;;;;;;5024934;28;20033;-81
2023/07/10 08:49:53;;;;;;;6.80;2.95;;;22.20;99.90;;;;;;5026161;28;20688;-81
2023/07/10 08:52:52;;;;;;;7.80;2.63;;;22.30;99.90;;;;;;5035510;28;20052;-81
2023/07/10 08:55:37;;;;;;;5.55;2.28;;;22.40;99.90;;;;;;5003627;28;20799;-82
2023/07/10 08:58:03;;;;;;;7.13;2.78;;;22.10;99.90;;;;;;5038874;28;20543;-82
2023/07/10 09:00:40;;;;;;;4.75;2.15;;;22.50;99.90;;;;;;5022799;28;20037;-81
2023/07/10 09:03:18;;;;;;;6.20;2.50;;;22.90;99.90;;;;;;5023129;28;20095;-82
2023/07/10 09:05:50;;;;;;;6.82;2.53;;;22.80;99.90;;;;;;5033882;28;20385;-82
2023/07/10 09:08:18;;;;;;;7.05;2.90;;;23.00;99.90;;;;;;5017339;28;20038;-81
2023/07/10 09:10:50;;;;;;;6.25;2.30;;;22.80;99.90;;;;;;4996073;28;20041;-81
2023/07/10 09:13:31;;;;;;;7.75;2.42;;;22.80;99.90;;;;;;5046880;28;20368;-81
2023/07/10 09:15:59;;;;;;;6.32;2.50;;;22.80;99.90;;;;;;5019977;28;20045;-81
2023/07/10 09:18:48;;;;;;;8.05;2.67;;;23.00;99.90;;;;;;5007497;28;20128;-81
2023/07/10 09:21:24;;;;;;;6.30;2.10;;;22.60;99.90;;;;;;5035806;28;20049;-82
2023/07/10 09:23:51;;;;;;;7.68;2.50;;;22.50;99.90;;;;;;5026335;28;20039;-81
2023/07/10 09:26:26;;;;;;;10.23;2.75;;;22.80;99.90;;;;;;5016972;28;20072;-82
2023/07/10 09:29:10;;;;;;;;;;;22.50;99.90;;;;;;5015509;28;20037;-81
2023/07/10 09:32:06;;;;;;;4.88;2.20;;;23.10;99.90;;;;;;5044762;28;19924;-82
2023/07/10 09:34:33;;;;;;;6.32;2.67;;;23.40;99.90;;;;;;5029795;28;20456;-81
2023/07/10 09:37:02;;;;;;;4.88;2.45;;;23.10;99.90;;;;;;5036583;28;20069;-82
2023/07/10 09:39:30;;;;;;;5.53;2.05;;;22.90;99.90;;;;;;5029787;28;20534;-81
2023/07/10 09:42:01;;;;;;;5.03;1.90;;;23.20;99.90;;;;;;5048921;28;20064;-81
2023/07/10 09:44:39;;;;;;;4.90;1.92;;;23.50;99.90;;;;;;5023936;28;20103;-81
2023/07/10 09:47:13;;;;;;;7.18;2.30;;;23.40;99.90;;;;;;5032305;28;20041;-81
2023/07/10 09:50:06;;;;;;;5.72;2.05;;;23.60;99.90;;;;;;5013890;28;20045;-82
2023/07/10 09:52:38;;;;;;;7.75;2.75;;;23.40;99.90;;;;;;4997774;28;20246;-81
2023/07/10 09:55:15;;;;;;;7.72;2.63;;;23.10;99.90;;;;;;5012287;28;20373;-81
2023/07/10 09:57:48;;;;;;;7.13;2.40;;;23.60;99.90;;;;;;5001247;28;20040;-81
2023/07/10 10:00:19;;;;;;;7.85;2.58;;;23.70;99.90;;;;;;5032458;28;20037;-81
2023/07/10 10:02:49;;;;;;;5.25;2.17;;;23.60;99.90;;;;;;4996748;28;20037;-82
2023/07/10 10:05:22;;;;;;;7.97;2.42;;;22.80;99.90;;;;;;5046623;28;20373;-81
2023/07/10 10:07:51;;;;;;;6.38;2.47;;;22.50;99.90;;;;;;5018994;28;20155;-82
2023/07/10 10:10:28;;;;;;;6.72;2.80;;;23.00;99.90;;;;;;5014204;28;20099;-81
2023/07/10 10:13:03;;;;;;;7.38;1.90;;;23.50;99.90;;;;;;5035190;28;20454;-81
2023/07/10 10:15:44;;;;;;;6.82;2.40;;;23.60;99.90;;;;;;5022055;28;20037;-81
2023/07/10 10:18:23;;;;;;;6.07;2.20;;;24.00;99.90;;;;;;5009937;28;20041;-81
2023/07/10 10:20:49;;;;;;;9.25;2.65;;;23.90;99.90;;;;;;5021806;28;20064;-81
2023/07/10 10:23:29;;;;;;;8.63;2.65;;;24.30;99.90;;;;;;5024633;28;20371;-82
2023/07/10 10:26:15;;;;;;;7.35;2.78;;;24.20;99.90;;;;;;5047825;28;20037;-81
2023/07/10 10:28:59;;;;;;;6.75;2.20;;;24.30;99.90;;;;;;5000601;28;20064;-81
2023/07/10 10:31:31;;;;;;;7.57;2.45;;;24.10;99.90;;;;;;5020395;28;20034;-82
2023/07/10 10:34:11;;;;;;;4.93;2.10;;;23.80;99.90;;;;;;5022956;28;20051;-81
2023/07/10 10:37:01;;;;;;;6.97;2.45;;;24.30;99.90;;;;;;5025657;28;20237;-81
2023/07/10 10:39:38;;;;;;;5.72;2.40;;;24.60;99.90;;;;;;5014107;28;20045;-81
2023/07/10 10:42:13;;;;;;;8.20;3.00;;;24.20;99.90;;;;;;5024197;28;20511;-81
2023/07/10 10:45:10;;;;;;;6.47;2.65;;;24.20;99.90;;;;;;5036713;28;20108;-81
2023/07/10 10:47:59;;;;;;;8.80;2.80;;;23.80;99.90;;;;;;5008313;28;20050;-82
2023/07/10 10:51:00;;;;;;;6.47;2.58;;;23.50;99.90;;;;;;5023146;28;20045;-81
2023/07/10 10:53:39;;;;;;;11.77;2.70;;;23.70;99.90;;;;;;5022803;28;20290;-81
2023/07/10 10:56:22;;;;;;;8.68;2.30;;;24.50;99.90;;;;;;4998643;28;20384;-81
2023/07/10 10:59:15;;;;;;;7.38;2.38;;;24.40;99.90;;;;;;5003486;28;20049;-81
2023/07/10 11:01:53;;;;;;;8.13;2.63;;;25.10;99.90;;;;;;5014893;28;20053;-81
2023/07/10 11:04:32;;;;;;;9.13;2.25;;;24.70;99.90;;;;;;5003746;28;20526;-81
2023/07/10 11:07:07;;;;;;;9.02;2.38;;;23.90;99.90;;;;;;5020410;28;20068;-81
2023/07/10 11:09:42;;;;;;;6.60;2.55;;;24.20;99.90;;;;;;5045255;28;20567;-81
2023/07/10 11:12:21;;;;;;;5.15;2.05;;;23.80;99.90;;;;;;5050690;28;20484;-81
2023/07/10 11:14:58;;;;;;;5.60;2.13;;;23.50;99.90;;;;;;5035651;28;20045;-81
2023/07/10 11:17:24;;;;;;;5.55;2.00;;;23.70;99.90;;;;;;5029265;28;20033;-81
2023/07/10 11:19:52;;;;;;;3.97;1.80;;;24.00;99.90;;;;;;5038667;28;20116;-81
2023/07/10 11:22:31;;;;;;;12.43;2.00;;;24.70;99.90;;;;;;5026182;28;20437;-81
2023/07/10 11:25:01;;;;;;;4.93;2.00;;;24.10;99.90;;;;;;5016600;28;20045;-81
2023/07/10 11:27:41;;;;;;;5.22;1.70;;;23.60;99.90;;;;;;5007377;28;20504;-81
2023/07/10 11:30:13;;;;;;;4.20;2.00;;;24.00;99.90;;;;;;5053783;28;20052;-81
2023/07/10 11:33:04;;;;;;;7.45;2.13;;;23.80;99.90;;;;;;5051412;28;20151;-82
2023/07/10 11:35:32;;;;;;;4.97;2.20;;;24.50;99.90;;;;;;5031191;28;20052;-81
2023/07/10 11:38:14;;;;;;;5.70;1.85;;;24.10;99.90;;;;;;5020628;28;20260;-81
2023/07/10 11:40:42;;;;;;;6.53;1.73;;;23.70;99.90;;;;;;4997343;28;20045;-81
2023/07/10 11:43:26;;;;;;;6.35;2.08;;;24.10;99.90;;;;;;5021906;28;20061;-81
2023/07/10 11:46:02;;;;;;;6.10;1.85;;;24.20;99.90;;;;;;5049212;28;20048;-81
2023/07/10 11:48:54;;;;;;;5.35;1.60;;;24.10;99.90;;;;;;5023581;28;20143;-81
2023/07/10 11:51:29;;;;;;;5.65;1.80;;;23.70;99.90;;;;;;5021336;28;20040;-81
2023/07/10 11:54:32;;;;;;;3.60;1.65;;;24.10;99.90;;;;;;5000285;28;20050;-82
2023/07/10 11:57:01;;;;;;;6.60;1.88;;;24.70;99.90;;;;;;5000203;28;20056;-81
2023/07/10 11:59:30;;;;;;;3.42;1.20;;;25.20;99.90;;;;;;5026951;28;20050;-81
2023/07/10 12:01:56;;;;;;;4.38;1.90;;;25.30;99.90;;;;;;5032404;28;20188;-82
2023/07/10 12:04:26;;;;;;;5.70;1.42;;;24.30;99.90;;;;;;5004306;28;20037;-81
2023/07/10 12:06:52;;;;;;;4.43;1.60;;;23.90;99.90;;;;;;5019254;28;20388;-81
2023/07/10 12:09:25;;;;;;;6.65;1.55;;;24.90;99.90;;;;;;5019271;28;20052;-81
2023/07/10 12:11:55;;;;;;;4.70;2.35;;;25.40;99.90;;;;;;5017627;28;20083;-81
2023/07/10 12:14:22;;;;;;;5.25;1.80;;;25.30;99.90;;;;;;5025110;28;20037;-81
2023/07/10 12:16:59;;;;;;;4.50;1.70;;;25.40;99.90;;;;;;5051163;28;20041;-81
2023/07/10 12:19:34;;;;;;;10.48;2.10;;;25.80;99.90;;;;;;4993196;28;20272;-81
2023/07/10 12:22:20;;;;;;;5.35;1.60;;;24.90;99.90;;;;;;5040811;28;20068;-82
2023/07/10 12:24:54;;;;;;;4.78;1.83;;;25.00;99.90;;;;;;5017678;28;20072;-81
2023/07/10 12:27:21;;;;;;;5.18;2.17;;;24.30;99.90;;;;;;5037403;28;20483;-81
2023/07/10 12:29:55;;;;;;;4.95;1.80;;;24.00;99.90;;;;;;5019318;28;20433;-82
2023/07/10 12:32:25;;;;;;;3.67;1.25;;;24.20;99.90;;;;;;5033015;28;20033;-81
2023/07/10 12:34:54;;;;;;;4.72;1.48;;;24.20;99.90;;;;;;5008077;28;20634;-81
2023/07/10 12:37:20;;;;;;;3.53;1.50;;;24.70;99.90;;;;;;5020769;28;20029;-82
2023/07/10 12:39:51;;;;;;;3.95;1.85;;;24.80;99.90;;;;;;5013064;28;20423;-81
2023/07/10 12:42:30;;;;;;;5.03;1.90;;;24.30;99.90;;;;;;5035536;28;20121;-81
2023/07/10 12:44:56;;;;;;;3.10;1.55;;;24.00;1.00;;;;;;5014976;28;20129;-81
2023/07/10 12:47:21;;;;;;;4.65;1.77;;;24.50;99.90;;;;;;5032372;28;20037;-81
2023/07/10 12:49:53;;;;;;;4.53;1.50;;;24.80;92.80;;;;;;5053172;28;20102;-81
2023/07/10 12:52:23;;;;;;;6.00;1.52;;;25.10;99.90;;;;;;5020526;28;20076;-81
2023/07/10 12:54:52;;;;;;;3.70;1.40;;;24.90;1.00;;;;;;5014295;28;20145;-81